Time;durP1;ratioP1;P1;durP2;ratioP2;P2;SDS_P1;SDS_P2;PMS_P1;PMS_P2;Temp;Humidity;BMP_temperature;BMP_pressure;BME280_temperature;BME280_humidity;BME280_pressure;Samples;Min_cycle;Max_cycle;Signal;HPM_P1;HPM_P2
2022/10/22 00:00:00;;;;;;;;;;;18.50;99.90;;;;;;5098163;28;20185;-11
2022/10/22 00:02:26;;;;;;;;;;;18.50;99.90;;;;;;5099095;28;19978;-10
2022/10/22 00:04:53;;;;;;;;;;;18.50;99.90;;;;;;5099635;28;19920;-10
2022/10/22 00:07:19;;;;;;;;;;;18.50;99.90;;;;;;5098353;28;19923;-10
2022/10/22 00:09:45;;;;;;;;;;;18.50;99.90;;;;;;5098939;28;19994;-11
2022/10/22 00:12:10;;;;;;;;;;;18.50;99.90;;;;;;5099819;28;19926;-11
2022/10/22 00:14:37;;;;;;;;;;;18.50;99.90;;;;;;5098887;28;20238;-11
2022/10/22 00:17:02;;;;;;;;;;;18.50;99.90;;;;;;5098573;28;19908;-10
2022/10/22 00:19:28;;;;;;;;;;;18.50;99.90;;;;;;5095563;28;19924;-10
2022/10/22 00:21:53;;;;;;;;;;;18.50;99.90;;;;;;5095955;28;19950;-10
2022/10/22 00:24:19;;;;;;;;;;;18.50;99.90;;;;;;5095276;28;19962;-10
2022/10/22 00:26:45;;;;;;;;;;;18.50;99.90;;;;;;5092566;28;20178;-10
2022/10/22 00:29:10;;;;;;;;;;;18.50;99.90;;;;;;5095091;28;19950;-10
2022/10/22 00:31:36;;;;;;;;;;;18.50;99.90;;;;;;5094550;28;20304;-10
2022/10/22 00:34:02;;;;;;;;;;;18.50;99.90;;;;;;5093443;28;19994;-10
2022/10/22 00:36:27;;;;;;;;;;;18.50;99.90;;;;;;5094868;28;19915;-10
2022/10/22 00:38:53;;;;;;;;;;;18.50;99.90;;;;;;5091003;28;20052;-10
2022/10/22 00:41:19;;;;;;;;;;;18.50;99.90;;;;;;5093928;28;19923;-10
2022/10/22 00:43:58;;;;;;;;;;;18.50;99.90;;;;;;5097814;28;20440;-9
2022/10/22 00:46:24;;;;;;;;;;;18.40;99.90;;;;;;5098452;28;19969;-9
2022/10/22 00:48:50;;;;;;;;;;;18.50;99.90;;;;;;5098080;28;19908;-11
2022/10/22 00:51:16;;;;;;;;;;;18.50;99.90;;;;;;5097179;28;19919;-11
2022/10/22 00:53:47;;;;;;;;;;;18.50;99.90;;;;;;5097104;28;19909;-9
2022/10/22 00:56:14;;;;;;;;;;;18.50;99.90;;;;;;5098100;28;20223;-10
2022/10/22 00:58:45;;;;;;;;;;;18.40;99.90;;;;;;5096889;28;19973;-11
2022/10/22 01:01:13;;;;;;;;;;;18.40;99.90;;;;;;5097577;28;19908;-10
2022/10/22 01:03:38;;;;;;;;;;;18.40;99.90;;;;;;5097667;28;19908;-11
2022/10/22 01:06:05;;;;;;;;;;;18.40;99.90;;;;;;5098035;28;19966;-11
2022/10/22 01:08:50;;;;;;;;;;;18.40;99.90;;;;;;5096547;28;19916;-11
2022/10/22 01:11:34;;;;;;;;;;;18.40;99.90;;;;;;5097682;28;19908;-11
2022/10/22 01:14:08;;;;;;;;;;;18.40;99.90;;;;;;5098198;28;19976;-10
2022/10/22 01:17:05;;;;;;;;;;;18.40;99.90;;;;;;5097503;28;20142;-11
2022/10/22 01:19:45;;;;;;;;;;;18.40;99.90;;;;;;5080263;28;20010;-10
2022/10/22 01:22:30;;;;;;;;;;;18.40;99.90;;;;;;5098184;28;19908;-10
2022/10/22 01:24:58;;;;;;;;;;;18.40;99.90;;;;;;5097852;28;19966;-10
2022/10/22 01:27:43;;;;;;;;;;;18.40;99.90;;;;;;5097289;28;20281;-10
2022/10/22 01:30:12;;;;;;;;;;;18.40;99.90;;;;;;5097601;28;19908;-10
2022/10/22 01:32:43;;;;;;;;;;;18.40;99.90;;;;;;5097532;28;19908;-10
2022/10/22 01:35:11;;;;;;;;;;;18.40;99.90;;;;;;5097034;28;19908;-9
2022/10/22 01:37:47;;;;;;;;;;;18.40;99.90;;;;;;5098444;28;19908;-9
2022/10/22 01:40:20;;;;;;;;;;;18.40;99.90;;;;;;5097971;28;19908;-10
2022/10/22 01:42:56;;;;;;;;;;;18.40;99.90;;;;;;5098149;28;19957;-10
2022/10/22 01:45:21;;;;;;;;;;;18.40;99.90;;;;;;5096044;28;19920;-10
2022/10/22 01:48:16;;;;;;;;;;;18.40;99.90;;;;;;5096182;28;19920;-11
2022/10/22 01:50:51;;;;;;;;;;;18.40;99.90;;;;;;5041518;28;19932;-10
2022/10/22 01:53:19;;;;;;;;;;;18.40;99.90;;;;;;5096934;28;19973;-9
2022/10/22 01:55:45;;;;;;;;;;;18.40;99.90;;;;;;5096819;28;19916;-9
2022/10/22 01:58:29;;;;;;;;;;;18.40;99.90;;;;;;5095965;28;19908;-10
2022/10/22 02:01:20;;;;;;;;;;;18.40;99.90;;;;;;5096615;28;20251;-10
2022/10/22 02:03:53;;;;;;;;;;;18.40;99.90;;;;;;5093309;28;19912;-11
2022/10/22 02:06:20;;;;;;;;;;;18.40;99.90;;;;;;5096800;28;19920;-9
2022/10/22 02:08:47;;;;;;;;;;;18.40;99.90;;;;;;5096366;28;19978;-10
2022/10/22 02:11:13;;;;;;;;;;;18.40;99.90;;;;;;5096257;28;19962;-11
2022/10/22 02:13:45;;;;;;;;;;;18.40;99.90;;;;;;5096093;28;19923;-10
2022/10/22 02:16:13;;;;;;;;;;;18.40;99.90;;;;;;5096052;28;19935;-11
2022/10/22 02:18:41;;;;;;;;;;;18.40;99.90;;;;;;5098015;28;19912;-11
2022/10/22 02:21:07;;;;;;;;;;;18.40;99.90;;;;;;5100524;28;19938;-11
2022/10/22 02:23:32;;;;;;;;;;;18.40;99.90;;;;;;5101153;28;19912;-10
2022/10/22 02:26:08;;;;;;;;;;;18.40;99.90;;;;;;5101375;28;19920;-9
2022/10/22 02:28:55;;;;;;;;;;;18.40;99.90;;;;;;5101512;28;19908;-11
2022/10/22 02:31:23;;;;;;;;;;;18.40;99.90;;;;;;5101439;28;19919;-10
2022/10/22 02:33:51;;;;;;;;;;;18.40;99.90;;;;;;5101650;28;19912;-11
2022/10/22 02:36:17;;;;;;;;;;;18.40;99.90;;;;;;5100842;28;19916;-10
2022/10/22 02:38:44;;;;;;;;;;;18.40;99.90;;;;;;5101629;28;19968;-11
2022/10/22 02:41:12;;;;;;;;;;;18.40;99.90;;;;;;5100631;28;20322;-10
2022/10/22 02:43:39;;;;;;;;;;;18.40;99.90;;;;;;5102056;28;19908;-10
2022/10/22 02:46:05;;;;;;;;;;;18.40;99.90;;;;;;5100581;28;19912;-11
2022/10/22 02:48:33;;;;;;;;;;;18.40;99.90;;;;;;5100532;28;19909;-10
2022/10/22 02:50:59;;;;;;;;;;;18.40;99.90;;;;;;5100989;28;20015;-10
2022/10/22 02:53:27;;;;;;;;;;;18.30;99.90;;;;;;5101067;28;19994;-10
2022/10/22 02:55:52;;;;;;;;;;;18.40;99.90;;;;;;5100794;28;20006;-9
2022/10/22 02:58:18;;;;;;;;;;;18.40;99.90;;;;;;5100503;28;19939;-11
2022/10/22 03:00:47;;;;;;;;;;;18.30;99.90;;;;;;5099912;28;20190;-11
2022/10/22 03:03:12;;;;;;;;;;;18.40;99.90;;;;;;5100059;28;19908;-10
2022/10/22 03:05:38;;;;;;;;;;;18.30;99.90;;;;;;5100704;28;20014;-11
2022/10/22 03:08:03;;;;;;;;;;;18.30;99.90;;;;;;5099991;28;19916;-10
2022/10/22 03:10:29;;;;;;;;;;;18.40;99.90;;;;;;5100603;28;20090;-10
2022/10/22 03:12:55;;;;;;;;;;;18.30;99.90;;;;;;5100117;28;20007;-10
2022/10/22 03:15:20;;;;;;;;;;;18.30;99.90;;;;;;5100372;28;19908;-10
2022/10/22 03:17:46;;;;;;;;;;;18.30;99.90;;;;;;5100576;28;19908;-11
2022/10/22 03:20:13;;;;;;;;;;;18.30;99.90;;;;;;5099076;28;20305;-12
2022/10/22 03:22:41;;;;;;;;;;;18.30;99.90;;;;;;5100436;28;19908;-10
2022/10/22 03:25:08;;;;;;;;;;;18.30;99.90;;;;;;5098619;28;19913;-10
2022/10/22 03:27:35;;;;;;;;;;;18.30;99.90;;;;;;5100051;28;19952;-10
2022/10/22 03:30:01;;;;;;;;;;;18.30;99.90;;;;;;5098218;28;19919;-11
2022/10/22 03:32:26;;;;;;;;;;;18.30;99.90;;;;;;5100655;28;20269;-10
2022/10/22 03:34:52;;;;;;;;;;;18.30;99.90;;;;;;5099244;28;19908;-9
2022/10/22 03:37:18;;;;;;;;;;;18.30;99.90;;;;;;5099568;28;20281;-10
2022/10/22 03:39:45;;;;;;;;;;;18.30;99.90;;;;;;5098655;28;19947;-10
2022/10/22 03:42:12;;;;;;;;;;;18.30;99.90;;;;;;5099853;28;19912;-10
2022/10/22 03:44:38;;;;;;;;;;;18.30;99.90;;;;;;5098335;28;19976;-11
2022/10/22 03:47:04;;;;;;;;;;;18.30;99.90;;;;;;5099169;28;19947;-9
2022/10/22 03:49:30;;;;;;;;;;;18.30;99.90;;;;;;5099583;28;19951;-10
2022/10/22 03:51:55;;;;;;;;;;;18.30;99.90;;;;;;5097717;28;19912;-11
2022/10/22 03:54:21;;;;;;;;;;;18.30;99.90;;;;;;5099428;28;19920;-11
2022/10/22 03:56:46;;;;;;;;;;;18.30;99.90;;;;;;5099483;28;19912;-9
2022/10/22 03:59:12;;;;;;;;;;;18.30;99.90;;;;;;5098300;28;19915;-10
2022/10/22 04:01:43;;;;;;;;;;;18.30;99.90;;;;;;5098906;28;19908;-10
2022/10/22 04:04:08;;;;;;;;;;;18.30;99.90;;;;;;5099259;28;19908;-10
2022/10/22 04:06:34;;;;;;;;;;;18.30;99.90;;;;;;5098876;28;19923;-10
2022/10/22 04:09:00;;;;;;;;;;;18.30;99.90;;;;;;5099066;28;19993;-12
2022/10/22 04:11:26;;;;;;;;;;;18.30;99.90;;;;;;5099080;28;19908;-10
2022/10/22 04:13:51;;;;;;;;;;;18.30;99.90;;;;;;5098653;28;19908;-11
2022/10/22 04:16:18;;;;;;;;;;;18.30;99.90;;;;;;5098450;28;19922;-10
2022/10/22 04:18:45;;;;;;;;;;;18.30;99.90;;;;;;5098752;28;19908;-9
2022/10/22 04:21:12;;;;;;;;;;;18.30;99.90;;;;;;5099453;28;19909;-11
2022/10/22 04:23:38;;;;;;;;;;;18.30;99.90;;;;;;5098068;28;19919;-10
2022/10/22 04:26:08;;;;;;;;;;;18.30;99.90;;;;;;5098341;28;19912;-10
2022/10/22 04:28:36;;;;;;;;;;;18.30;99.90;;;;;;5098845;28;19982;-9
2022/10/22 04:31:12;;;;;;;;;;;18.30;99.90;;;;;;5098185;28;20331;-10
2022/10/22 04:33:38;;;;;;;;;;;18.30;99.90;;;;;;5098967;28;19908;-11
2022/10/22 04:36:08;;;;;;;;;;;18.30;99.90;;;;;;5098688;28;19933;-9
2022/10/22 04:38:33;;;;;;;;;;;18.30;99.90;;;;;;5097576;28;19908;-10
2022/10/22 04:41:09;;;;;;;;;;;18.30;99.90;;;;;;5098328;28;19908;-10
2022/10/22 04:43:34;;;;;;;;;;;18.30;99.90;;;;;;5097627;28;19908;-9
2022/10/22 04:46:00;;;;;;;;;;;18.20;99.90;;;;;;5097117;28;19923;-9
2022/10/22 04:48:26;;;;;;;;;;;18.20;99.90;;;;;;5096614;28;20563;-10
2022/10/22 04:50:52;;;;;;;;;;;18.30;99.90;;;;;;5098055;28;19916;-10
2022/10/22 04:53:18;;;;;;;;;;;18.20;99.90;;;;;;5097866;28;19912;-12
2022/10/22 04:55:43;;;;;;;;;;;18.20;99.90;;;;;;5098835;28;19961;-10
2022/10/22 04:58:09;;;;;;;;;;;18.20;99.90;;;;;;5098297;28;19918;-9
2022/10/22 05:00:34;;;;;;;;;;;18.20;99.90;;;;;;5098288;28;19954;-10
2022/10/22 05:03:00;;;;;;;;;;;18.30;99.90;;;;;;5098433;28;20309;-11
2022/10/22 05:05:27;;;;;;;;;;;18.30;99.90;;;;;;5098475;28;19927;-9
2022/10/22 05:07:52;;;;;;;;;;;18.20;99.90;;;;;;5097735;28;19923;-10
2022/10/22 05:10:18;;;;;;;;;;;18.20;99.90;;;;;;5098571;28;19912;-10
2022/10/22 05:12:43;;;;;;;;;;;18.30;99.90;;;;;;5098800;28;20243;-10
2022/10/22 05:15:10;;;;;;;;;;;18.20;99.90;;;;;;5097603;28;19915;-10
2022/10/22 05:17:36;;;;;;;;;;;18.20;99.90;;;;;;5098682;28;19961;-11
2022/10/22 05:20:02;;;;;;;;;;;18.20;99.90;;;;;;5097971;28;19908;-10
2022/10/22 05:22:28;;;;;;;;;;;18.20;99.90;;;;;;5098781;28;19915;-9
2022/10/22 05:24:55;;;;;;;;;;;18.20;99.90;;;;;;5098259;28;20018;-10
2022/10/22 05:27:20;;;;;;;;;;;18.20;99.90;;;;;;5098574;28;19995;-10
2022/10/22 05:29:46;;;;;;;;;;;18.20;99.90;;;;;;5097449;28;20238;-9
2022/10/22 05:32:14;;;;;;;;;;;18.20;99.90;;;;;;5097386;28;20282;-10
2022/10/22 05:34:40;;;;;;;;;;;18.20;99.90;;;;;;5096155;28;20434;-10
2022/10/22 05:37:06;;;;;;;;;;;18.20;99.90;;;;;;5097670;28;19908;-10
2022/10/22 05:39:35;;;;;;;;;;;18.30;99.90;;;;;;5096845;28;19918;-10
2022/10/22 05:42:01;;;;;;;;;;;18.20;99.90;;;;;;5097823;28;19914;-10
2022/10/22 05:44:27;;;;;;;;;;;18.20;99.90;;;;;;5096460;28;19920;-10
2022/10/22 05:46:52;;;;;;;;;;;18.20;99.90;;;;;;5096772;28;20332;-10
2022/10/22 05:49:18;;;;;;;;;;;18.20;99.90;;;;;;5096834;28;20177;-11
2022/10/22 05:51:43;;;;;;;;;;;18.20;99.90;;;;;;5096485;28;19918;-10
2022/10/22 05:54:14;;;;;;;;;;;18.20;99.90;;;;;;5096623;28;19915;-10
2022/10/22 05:56:40;;;;;;;;;;;18.20;99.90;;;;;;5096136;28;20300;-10
2022/10/22 05:59:09;;;;;;;;;;;18.20;99.90;;;;;;5096899;28;19907;-11
2022/10/22 06:01:35;;;;;;;;;;;18.20;99.90;;;;;;5095452;28;19908;-10
2022/10/22 06:04:02;;;;;;;;;;;18.20;99.90;;;;;;5096370;28;19919;-11
2022/10/22 06:06:46;;;;;;;;;;;18.20;99.90;;;;;;5096586;28;19908;-9
2022/10/22 06:09:14;;;;;;;;;;;18.20;99.90;;;;;;5096277;28;19908;-10
2022/10/22 06:11:40;;;;;;;;;;;18.20;99.90;;;;;;5096258;28;19951;-11
2022/10/22 06:14:05;;;;;;;;;;;18.20;99.90;;;;;;5096873;28;19947;-10
2022/10/22 06:16:32;;;;;;;;;;;18.20;99.90;;;;;;5096364;28;19920;-11
2022/10/22 06:19:00;;;;;;;;;;;18.20;99.90;;;;;;5095591;28;19918;-11
2022/10/22 06:21:26;;;;;;;;;;;18.20;99.90;;;;;;5096034;28;20273;-10
2022/10/22 06:23:51;;;;;;;;;;;18.30;99.90;;;;;;5097141;28;19919;-10
2022/10/22 06:26:25;;;;;;;;;;;18.30;99.90;;;;;;5096773;28;19918;-11
2022/10/22 06:28:50;;;;;;;;;;;18.30;99.90;;;;;;5096598;28;19923;-10
2022/10/22 06:31:16;;;;;;;;;;;18.30;99.90;;;;;;5096374;28;19908;-10
2022/10/22 06:33:42;;;;;;;;;;;18.30;99.90;;;;;;5096448;28;19908;-10
2022/10/22 06:36:09;;;;;;;;;;;18.30;99.90;;;;;;5096288;28;19973;-9
2022/10/22 06:38:34;;;;;;;;;;;18.40;99.90;;;;;;5097178;28;19908;-10
2022/10/22 06:41:04;;;;;;;;;;;18.40;99.90;;;;;;5096332;28;19912;-10
2022/10/22 06:43:31;;;;;;;;;;;18.40;99.90;;;;;;5095560;28;19919;-9
2022/10/22 06:46:06;;;;;;;;;;;18.50;99.90;;;;;;5095642;28;19923;-10
2022/10/22 06:48:32;;;;;;;;;;;18.50;99.90;;;;;;5096135;28;19948;-9
2022/10/22 06:51:04;;;;;;;;;;;18.50;99.90;;;;;;5096327;28;20004;-10
2022/10/22 06:53:30;;;;;;;;;;;18.60;99.90;;;;;;5095104;28;19908;-10
2022/10/22 06:55:56;;;;;;;;;;;18.60;99.90;;;;;;5095332;28;19934;-10
2022/10/22 06:58:22;;;;;;;;;;;18.60;99.90;;;;;;5093844;28;19920;-10
2022/10/22 07:00:47;;;;;;;;;;;18.70;99.90;;;;;;5094227;28;19908;-10
2022/10/22 07:03:13;;;;;;;;;;;18.70;99.90;;;;;;5095046;28;19919;-11
2022/10/22 07:05:39;;;;;;;;;;;18.80;99.90;;;;;;5098209;28;19911;-11
2022/10/22 07:08:05;;;;;;;;;;;18.90;99.90;;;;;;5100306;28;19927;-10
2022/10/22 07:10:30;;;;;;;;;;;19.40;99.90;;;;;;5100209;28;20367;-11
2022/10/22 07:12:56;;;;;;;;;;;20.40;99.90;;;;;;5099220;28;20266;-11
2022/10/22 07:15:23;;;;;;;;;;;21.00;99.90;;;;;;5099151;28;19908;-10
2022/10/22 07:17:50;;;;;;;;;;;21.40;99.90;;;;;;5098696;28;19919;-10
2022/10/22 07:20:17;;;;;;;;;;;21.10;99.90;;;;;;5098492;28;20391;-10
2022/10/22 07:22:43;;;;;;;;;;;20.70;99.90;;;;;;5099563;28;20017;-10
2022/10/22 07:25:10;;;;;;;;;;;20.40;99.90;;;;;;5099071;28;19999;-10
2022/10/22 07:27:35;;;;;;;;;;;20.20;99.90;;;;;;5098618;28;19919;-11
2022/10/22 07:30:01;;;;;;;;;;;20.40;99.90;;;;;;5096796;28;19916;-11
2022/10/22 07:32:27;;;;;;;;;;;21.40;99.90;;;;;;5096752;28;20371;-11
2022/10/22 07:34:54;;;;;;;;;;;22.10;99.60;;;;;;5096998;28;19998;-10
2022/10/22 07:37:20;;;;;;;;;;;22.80;97.90;;;;;;5097732;28;19958;-11
2022/10/22 07:39:49;;;;;;;;;;;23.30;96.40;;;;;;5097531;28;19908;-11
2022/10/22 07:42:15;;;;;;;;;;;23.70;95.00;;;;;;5098026;28;20333;-11
2022/10/22 07:44:41;;;;;;;;;;;24.10;93.70;;;;;;5096888;28;20447;-11
2022/10/22 07:47:07;;;;;;;;;;;24.40;92.40;;;;;;5097600;28;19912;-10
2022/10/22 07:49:32;;;;;;;;;;;24.60;91.30;;;;;;5098321;28;20209;-11
2022/10/22 07:51:58;;;;;;;;;;;24.90;90.20;;;;;;5098460;28;19959;-11
2022/10/22 07:54:24;;;;;;;;;;;25.20;88.60;;;;;;5097988;28;19958;-11
2022/10/22 07:56:50;;;;;;;;;;;25.50;85.90;;;;;;5097451;28;19990;-11
2022/10/22 07:59:15;;;;;;;;;;;25.70;84.20;;;;;;5097403;28;20255;-11
2022/10/22 08:01:41;;;;;;;;;;;25.90;82.30;;;;;;5097391;28;20296;-12
2022/10/22 08:04:08;;;;;;;;;;;26.20;80.40;;;;;;5098587;28;19908;-10
2022/10/22 08:06:34;;;;;;;;;;;26.50;78.30;;;;;;5097099;28;19909;-12
2022/10/22 08:09:00;;;;;;;;;;;26.80;76.20;;;;;;5097798;28;19908;-10
2022/10/22 08:11:26;;;;;;;;;;;27.00;74.20;;;;;;5098006;28;20266;-11
2022/10/22 08:13:52;;;;;;;;;;;27.30;72.40;;;;;;5096140;28;19964;-11
2022/10/22 08:16:17;;;;;;;;;;;27.50;70.80;;;;;;5096873;28;19908;-11
2022/10/22 08:18:43;;;;;;;;;;;27.60;69.40;;;;;;5096390;28;19908;-10
2022/10/22 08:21:09;;;;;;;;;;;27.80;68.30;;;;;;5096227;28;19908;-11
2022/10/22 08:23:37;;;;;;;;;;;27.90;67.30;;;;;;5095900;28;20005;-13
2022/10/22 08:26:05;;;;;;;;;;;27.50;67.60;;;;;;5097028;28;20423;-11
2022/10/22 08:28:34;;;;;;;;;;;27.30;67.80;;;;;;5095836;28;19993;-11
2022/10/22 08:31:00;;;;;;;;;;;27.10;69.40;;;;;;5096864;28;19954;-11
2022/10/22 08:33:26;;;;;;;;;;;25.90;73.40;;;;;;5096798;28;19950;-11
2022/10/22 08:35:51;;;;;;;;;;;25.10;78.90;;;;;;5097056;28;20011;-10
2022/10/22 08:38:17;;;;;;;;;;;24.30;84.60;;;;;;5097060;28;19908;-11
2022/10/22 08:40:45;;;;;;;;;;;23.70;90.00;;;;;;5096864;28;19923;-10
2022/10/22 08:43:26;;;;;;;;;;;23.30;91.90;;;;;;5097710;28;19912;-12
2022/10/22 08:45:51;;;;;;;;;;;22.90;93.40;;;;;;5094432;28;19916;-11
2022/10/22 08:48:26;;;;;;;;;;;22.50;94.70;;;;;;5094618;28;19919;-11
2022/10/22 08:50:55;;;;;;;;;;;22.20;95.70;;;;;;5095832;28;19975;-11
2022/10/22 08:53:24;;;;;;;;;;;22.00;96.80;;;;;;5096652;28;19912;-11
2022/10/22 08:55:52;;;;;;;;;;;21.80;97.60;;;;;;5095926;28;19908;-11
2022/10/22 08:58:24;;;;;;;;;;;21.60;98.20;;;;;;5096417;28;19905;-10
2022/10/22 09:01:01;;;;;;;;;;;21.50;98.80;;;;;;5097032;28;19908;-11
2022/10/22 09:03:32;;;;;;;;;;;21.30;99.30;;;;;;5097202;28;19927;-12
2022/10/22 09:06:04;;;;;;;;;;;21.20;99.80;;;;;;5079332;28;19950;-9
2022/10/22 09:08:29;;;;;;;;;;;21.10;99.90;;;;;;5074951;28;19918;-11
2022/10/22 09:11:22;;;;;;;;;;;21.00;99.90;;;;;;5073955;28;19916;-12
2022/10/22 09:13:48;;;;;;;;;;;20.90;99.90;;;;;;5051183;28;19919;-11
2022/10/22 09:16:29;;;;;;;;;;;20.80;99.90;;;;;;5074881;28;20329;-11
2022/10/22 09:19:24;;;;;;;;;;;20.70;99.90;;;;;;5074277;28;19951;-10
2022/10/22 09:21:49;;;;;;;;;;;20.70;99.90;;;;;;5037660;28;19940;-10
2022/10/22 09:24:24;;;;;;;;;;;20.70;99.90;;;;;;5073722;28;19958;-10
2022/10/22 09:26:49;;;;;;;;;;;20.70;99.90;;;;;;5074934;28;19995;-11
2022/10/22 09:29:23;;;;;;;;;;;20.60;99.90;;;;;;5073388;28;20004;-11
2022/10/22 09:31:48;;;;;;;;;;;20.60;99.90;;;;;;5073394;28;19909;-11
2022/10/22 09:34:18;;;;;;;;;;;20.60;99.90;;;;;;5075395;28;19908;-11
2022/10/22 09:36:43;;;;;;;;;;;20.50;99.90;;;;;;5074644;28;19920;-9
2022/10/22 09:39:24;;;;;;;;;;;20.50;99.90;;;;;;5075154;28;19908;-10
2022/10/22 09:41:50;;;;;;;;;;;20.50;99.90;;;;;;5075997;28;20008;-10
2022/10/22 09:44:16;;;;;;;;;;;20.70;99.90;;;;;;5078141;28;20438;-10
2022/10/22 09:46:44;;;;;;;;;;;20.80;99.90;;;;;;5075254;28;19977;-10
2022/10/22 09:49:13;;;;;;;;;;;21.00;99.90;;;;;;5096411;28;20011;-11
2022/10/22 09:51:51;;;;;;;;;;;21.00;99.90;;;;;;5096418;28;20375;-11
2022/10/22 09:54:16;;;;;;;;;;;21.00;99.90;;;;;;5094400;28;19919;-11
2022/10/22 09:56:45;;;;;;;;;;;20.90;99.90;;;;;;5094806;28;20040;-10
2022/10/22 09:59:15;;;;;;;;;;;20.80;99.90;;;;;;5095528;28;19977;-10
2022/10/22 10:01:41;;;;;;;;;;;20.80;99.90;;;;;;5094966;28;20295;-11
2022/10/22 10:04:15;;;;;;;;;;;20.70;99.90;;;;;;5093830;28;20269;-12
2022/10/22 10:06:42;;;;;;;;;;;20.70;99.90;;;;;;5095337;28;19916;-11
2022/10/22 10:09:17;;;;;;;;;;;20.60;99.90;;;;;;5095624;28;19962;-10
2022/10/22 10:11:55;;;;;;;;;;;20.60;99.90;;;;;;5094797;28;19909;-10
2022/10/22 10:14:27;;;;;;;;;;;20.50;99.90;;;;;;5094532;28;19915;-11
2022/10/22 10:17:06;;;;;;;;;;;20.50;99.90;;;;;;5095205;28;19908;-11
2022/10/22 10:19:40;;;;;;;;;;;20.40;99.90;;;;;;5092315;28;19951;-10
2022/10/22 10:22:06;;;;;;;;;;;20.30;99.90;;;;;;5094285;28;19912;-12
2022/10/22 10:24:49;;;;;;;;;;;20.30;99.90;;;;;;5093519;28;19916;-11
2022/10/22 10:27:23;;;;;;;;;;;20.30;99.90;;;;;;5094511;28;20381;-10
2022/10/22 10:30:07;;;;;;;;;;;20.20;99.90;;;;;;5094488;28;19962;-11
2022/10/22 10:32:52;;;;;;;;;;;20.20;99.90;;;;;;5093088;28;19966;-10
2022/10/22 10:35:20;;;;;;;;;;;20.20;99.90;;;;;;5093620;28;20341;-11
2022/10/22 10:37:52;;;;;;;;;;;20.20;99.90;;;;;;5093335;28;19908;-9
2022/10/22 10:40:23;;;;;;;;;;;20.20;99.90;;;;;;5096537;28;19973;-10
2022/10/22 10:43:09;;;;;;;;;;;20.10;99.90;;;;;;5096376;28;19908;-11
2022/10/22 10:45:45;;;;;;;;;;;20.10;99.90;;;;;;5097599;28;20165;-11
2022/10/22 10:48:13;;;;;;;;;;;20.10;99.90;;;;;;5098199;28;19998;-11
2022/10/22 10:50:39;;;;;;;;;;;20.10;99.90;;;;;;5097721;28;20034;-10
2022/10/22 10:53:04;;;;;;;;;;;20.00;99.90;;;;;;5098368;28;20262;-12
2022/10/22 10:55:40;;;;;;;;;;;20.10;99.90;;;;;;5097565;28;19908;-11
2022/10/22 10:58:24;;;;;;;;;;;20.00;99.90;;;;;;5097587;28;19908;-9
2022/10/22 11:00:59;;;;;;;;;;;20.00;99.90;;;;;;5097657;28;20370;-10
2022/10/22 11:03:25;;;;;;;;;;;20.00;99.90;;;;;;5098077;28;19951;-9
2022/10/22 11:05:58;;;;;;;;;;;20.10;99.90;;;;;;5077717;28;19971;-11
2022/10/22 11:08:24;;;;;;;;;;;20.10;99.90;;;;;;5078283;28;20003;-11
2022/10/22 11:10:50;;;;;;;;;;;20.10;99.90;;;;;;5079417;28;19919;-11
2022/10/22 11:13:15;;;;;;;;;;;20.10;99.90;;;;;;5096502;28;19908;-10
2022/10/22 11:15:44;;;;;;;;;;;20.10;99.90;;;;;;5097124;28;19923;-10
2022/10/22 11:18:13;;;;;;;;;;;20.10;99.90;;;;;;5097156;28;19914;-10
2022/10/22 11:20:42;;;;;;;;;;;20.10;99.90;;;;;;5097686;28;19908;-9
2022/10/22 11:23:13;;;;;;;;;;;20.10;99.90;;;;;;5097410;28;19908;-11
2022/10/22 11:25:48;;;;;;;;;;;20.20;99.90;;;;;;5096948;28;19951;-9
2022/10/22 11:28:14;;;;;;;;;;;20.20;99.90;;;;;;5095743;28;19915;-11
2022/10/22 11:30:42;;;;;;;;;;;20.20;99.90;;;;;;5099022;28;19916;-10
2022/10/22 11:33:12;;;;;;;;;;;20.20;99.90;;;;;;5098516;28;19999;-10
2022/10/22 11:35:40;;;;;;;;;;;20.20;99.90;;;;;;5098429;28;20415;-11
2022/10/22 11:38:06;;;;;;;;;;;20.20;99.90;;;;;;5097832;28;20003;-10
2022/10/22 11:40:31;;;;;;;;;;;20.20;99.90;;;;;;5080001;28;20011;-9
2022/10/22 11:43:02;;;;;;;;;;;20.20;99.90;;;;;;5077404;28;19909;-10
2022/10/22 11:45:33;;;;;;;;;;;20.20;99.90;;;;;;5076411;28;19918;-10
2022/10/22 11:48:14;;;;;;;;;;;20.20;99.90;;;;;;5076438;28;19908;-11
2022/10/22 11:50:47;;;;;;;;;;;20.10;99.90;;;;;;5076857;28;20190;-10
2022/10/22 11:53:13;;;;;;;;;;;20.10;99.90;;;;;;5081751;28;19918;-10
2022/10/22 11:55:44;;;;;;;;;;;20.10;99.90;;;;;;5097185;28;20337;-11
2022/10/22 11:58:28;;;;;;;;;;;20.10;99.90;;;;;;5095072;28;19908;-10
2022/10/22 12:00:55;;;;;;;;;;;20.10;99.90;;;;;;5096816;28;20328;-9
2022/10/22 12:03:29;;;;;;;;;;;20.10;99.90;;;;;;5097283;28;19908;-10
2022/10/22 12:06:25;;;;;;;;;;;20.10;99.90;;;;;;5097898;28;19923;-10
2022/10/22 12:08:53;;;;;;;;;;;20.10;99.90;;;;;;5070041;28;19916;-11
2022/10/22 12:11:21;;;;;;;;;;;20.10;99.90;;;;;;5097388;28;19938;-9
2022/10/22 12:14:02;;;;;;;;;;;20.10;99.90;;;;;;5097508;28;19926;-10
2022/10/22 12:16:46;;;;;;;;;;;20.10;99.90;;;;;;5097307;28;19962;-10
2022/10/22 12:19:16;;;;;;;;;;;20.10;99.90;;;;;;5097277;28;19916;-10
2022/10/22 12:21:44;;;;;;;;;;;20.10;99.90;;;;;;5081392;28;19908;-10
2022/10/22 12:24:15;;;;;;;;;;;20.10;99.90;;;;;;5096501;28;19962;-11
2022/10/22 12:26:42;;;;;;;;;;;20.10;99.90;;;;;;5084649;28;19959;-9
2022/10/22 12:29:12;;;;;;;;;;;20.10;99.90;;;;;;5086438;28;19909;-9
2022/10/22 12:31:39;;;;;;;;;;;20.10;99.90;;;;;;5075500;28;19962;-11
2022/10/22 12:34:05;;;;;;;;;;;20.10;99.90;;;;;;5075992;28;19934;-10
2022/10/22 12:36:32;;;;;;;;;;;20.10;99.90;;;;;;5095007;28;20002;-10
2022/10/22 12:39:02;;;;;;;;;;;20.10;99.90;;;;;;5095059;28;19923;-11
2022/10/22 12:41:32;;;;;;;;;;;20.00;99.90;;;;;;5096386;28;20307;-10
2022/10/22 12:43:58;;;;;;;;;;;20.00;99.90;;;;;;5085996;28;20468;-11
2022/10/22 12:46:24;;;;;;;;;;;20.00;99.90;;;;;;5075381;28;19912;-10
2022/10/22 12:48:49;;;;;;;;;;;20.00;99.90;;;;;;5094813;28;19918;-11
2022/10/22 12:51:17;;;;;;;;;;;20.10;99.90;;;;;;5095603;28;19923;-9
2022/10/22 12:53:45;;;;;;;;;;;20.10;99.90;;;;;;5096630;28;19923;-11
2022/10/22 12:56:12;;;;;;;;;;;20.10;99.90;;;;;;5096150;28;20262;-9
2022/10/22 12:58:50;;;;;;;;;;;20.10;99.90;;;;;;5095839;28;19919;-11
2022/10/22 13:01:16;;;;;;;;;;;20.10;99.90;;;;;;5095825;28;19908;-9
2022/10/22 13:03:45;;;;;;;;;;;20.10;99.90;;;;;;5094959;28;20493;-11
2022/10/22 13:06:12;;;;;;;;;;;20.10;99.90;;;;;;5095355;28;19912;-10
2022/10/22 13:08:37;;;;;;;;;;;20.10;99.90;;;;;;5095813;28;19916;-11
2022/10/22 13:11:06;;;;;;;;;;;20.10;99.90;;;;;;5092814;28;20399;-10
2022/10/22 13:13:44;;;;;;;;;;;20.10;99.90;;;;;;5074908;28;19913;-10
2022/10/22 13:16:17;;;;;;;;;;;20.10;99.90;;;;;;5079898;28;20364;-11
2022/10/22 13:18:43;;;;;;;;;;;20.10;99.90;;;;;;5094373;28;19998;-11
2022/10/22 13:21:25;;;;;;;;;;;20.10;99.90;;;;;;5094717;28;19912;-10
2022/10/22 13:24:11;;;;;;;;;;;20.10;99.90;;;;;;5090683;28;19969;-9
2022/10/22 13:26:36;;;;;;;;;;;20.10;99.90;;;;;;5081942;28;19916;-11
2022/10/22 13:29:08;;;;;;;;;;;20.10;99.90;;;;;;5095809;28;20275;-11
2022/10/22 13:31:36;;;;;;;;;;;20.10;99.90;;;;;;5096477;28;19958;-10
2022/10/22 13:34:05;;;;;;;;;;;20.10;99.90;;;;;;5093336;28;19916;-11
2022/10/22 13:36:33;;;;;;;;;;;20.10;99.90;;;;;;5089330;28;20349;-9
2022/10/22 13:39:01;;;;;;;;;;;20.10;99.90;;;;;;5093871;28;19908;-10
2022/10/22 13:41:29;;;;;;;;;;;20.10;99.90;;;;;;5094898;28;19908;-10
2022/10/22 13:43:55;;;;;;;;;;;20.10;99.90;;;;;;5094201;28;19935;-10
2022/10/22 13:46:22;;;;;;;;;;;20.10;99.90;;;;;;5095003;28;20296;-11
2022/10/22 13:48:49;;;;;;;;;;;20.10;99.90;;;;;;5094833;28;20429;-10
2022/10/22 13:51:17;;;;;;;;;;;20.10;99.90;;;;;;5094350;28;20538;-10
2022/10/22 13:53:43;;;;;;;;;;;20.10;99.90;;;;;;5093414;28;19974;-10
2022/10/22 13:56:14;;;;;;;;;;;20.10;99.90;;;;;;5093937;28;20350;-11
2022/10/22 13:58:49;;;;;;;;;;;20.10;99.90;;;;;;5094214;28;19908;-10
2022/10/22 14:01:24;;;;;;;;;;;20.10;99.90;;;;;;5095381;28;19908;-11
2022/10/22 14:03:52;;;;;;;;;;;20.00;99.90;;;;;;5095130;28;19919;-10
2022/10/22 14:06:18;;;;;;;;;;;20.00;99.90;;;;;;5093844;28;19912;-11
2022/10/22 14:08:45;;;;;;;;;;;20.00;99.90;;;;;;5095185;28;19942;-11
2022/10/22 14:11:11;;;;;;;;;;;20.00;99.90;;;;;;5095254;28;20370;-11
2022/10/22 14:13:37;;;;;;;;;;;20.00;99.90;;;;;;5095189;28;19908;-10
2022/10/22 14:16:08;;;;;;;;;;;20.00;99.90;;;;;;5097775;28;19955;-11
2022/10/22 14:18:34;;;;;;;;;;;20.00;99.90;;;;;;5098051;28;19999;-10
2022/10/22 14:21:03;;;;;;;;;;;20.00;99.90;;;;;;5098282;28;19999;-10
2022/10/22 14:23:30;;;;;;;;;;;20.00;99.90;;;;;;5098285;28;20010;-10
2022/10/22 14:26:01;;;;;;;;;;;20.00;99.90;;;;;;5098539;28;19912;-10
2022/10/22 14:28:27;;;;;;;;;;;20.00;99.90;;;;;;5099050;28;20342;-11